createdAt,value
2022-10-18T00:00:46.281Z,22.73
2022-10-18T00:03:13.145Z,26.73
2022-10-18T00:05:40.018Z,23.52
2022-10-18T00:08:07.001Z,19.17
2022-10-18T00:10:33.861Z,16.40
2022-10-18T00:13:00.852Z,15.82
2022-10-18T00:15:27.767Z,17.70
2022-10-18T00:17:54.653Z,18.42
2022-10-18T00:20:21.780Z,16.42
2022-10-18T00:22:48.667Z,22.48
2022-10-18T00:25:15.974Z,17.42
2022-10-18T00:27:42.911Z,16.20
2022-10-18T00:30:10.291Z,13.75
2022-10-18T00:32:42.043Z,13.38
2022-10-18T00:35:09.737Z,18.67
2022-10-18T00:37:36.608Z,16.65
2022-10-18T00:40:04.732Z,13.68
2022-10-18T00:42:34.539Z,15.60
2022-10-18T00:45:19.142Z,17.33
2022-10-18T00:47:51.343Z,16.05
2022-10-18T00:50:21.370Z,14.98
2022-10-18T00:52:53.663Z,13.75
2022-10-18T00:55:20.797Z,13.40
2022-10-18T00:57:49.101Z,17.92
2022-10-18T01:00:16.663Z,15.82
2022-10-18T01:02:45.511Z,19.13
2022-10-18T01:05:14.957Z,15.85
2022-10-18T01:08:24.467Z,13.93
2022-10-18T01:11:26.619Z,12.27
2022-10-18T01:14:21.175Z,13.20
2022-10-18T01:17:08.829Z,12.15
2022-10-18T01:20:00.291Z,12.77
2022-10-18T01:22:51.780Z,13.25
2022-10-18T01:25:27.455Z,15.25
2022-10-18T01:28:15.729Z,12.55
2022-10-18T01:30:54.144Z,15.02
2022-10-18T01:33:38.501Z,9.07
2022-10-18T01:36:23.461Z,13.20
2022-10-18T01:38:55.382Z,13.80
2022-10-18T01:41:25.376Z,14.73
2022-10-18T01:43:57.672Z,13.40
2022-10-18T01:46:26.404Z,12.50
2022-10-18T01:48:55.002Z,11.23
2022-10-18T01:51:26.975Z,14.13
2022-10-18T01:53:54.385Z,13.57
2022-10-18T01:56:57.632Z,14.65
2022-10-18T01:59:38.285Z,16.45
2022-10-18T02:02:11.165Z,13.57
2022-10-18T02:04:51.658Z,10.27
2022-10-18T02:07:24.395Z,15.90
2022-10-18T02:10:18.861Z,12.82
2022-10-18T02:12:48.557Z,11.35
2022-10-18T02:15:20.644Z,11.32
2022-10-18T02:17:47.680Z,16.20
2022-10-18T02:20:20.475Z,10.70
2022-10-18T02:22:50.895Z,13.38
2022-10-18T02:25:23.013Z,9.75
2022-10-18T02:27:50.208Z,10.32
2022-10-18T02:30:17.604Z,12.57
2022-10-18T02:32:53.624Z,18.48
2022-10-18T02:35:32.135Z,10.35
2022-10-18T02:37:59.456Z,9.43
2022-10-18T02:40:26.816Z,13.73
2022-10-18T02:42:58.323Z,10.90
2022-10-18T02:45:26.770Z,13.70
2022-10-18T02:47:53.795Z,10.70
2022-10-18T02:50:20.732Z,14.95
2022-10-18T02:52:47.627Z,11.13
2022-10-18T02:55:14.492Z,11.20
2022-10-18T02:57:41.510Z,11.57
2022-10-18T03:00:09.190Z,14.32
2022-10-18T03:02:36.070Z,11.35
2022-10-18T03:05:03.378Z,12.55
2022-10-18T03:07:30.788Z,12.82
2022-10-18T03:09:58.120Z,14.10
2022-10-18T03:12:24.986Z,14.73
2022-10-18T03:14:51.895Z,14.57
2022-10-18T03:17:18.749Z,14.10
2022-10-18T03:19:45.727Z,14.85
2022-10-18T03:22:12.553Z,13.65
2022-10-18T03:24:39.398Z,12.82
2022-10-18T03:27:06.350Z,15.70
2022-10-18T03:29:33.187Z,15.38
2022-10-18T03:32:00.130Z,11.93
2022-10-18T03:34:26.990Z,14.50
2022-10-18T03:36:54.986Z,16.02
2022-10-18T03:39:21.896Z,14.00
2022-10-18T03:41:48.811Z,14.95
2022-10-18T03:44:15.713Z,10.95
2022-10-18T03:46:42.668Z,13.23
2022-10-18T03:49:09.550Z,11.05
2022-10-18T03:51:36.478Z,12.20
2022-10-18T03:54:03.620Z,16.98
2022-10-18T03:56:30.629Z,18.38
2022-10-18T03:58:57.464Z,11.85
2022-10-18T04:01:24.415Z,11.95
2022-10-18T04:03:51.397Z,13.85
2022-10-18T04:06:18.319Z,11.80
2022-10-18T04:08:45.240Z,12.32
2022-10-18T04:11:12.571Z,11.23
2022-10-18T04:13:39.529Z,13.98
2022-10-18T04:16:06.647Z,12.80
2022-10-18T04:18:33.499Z,15.82
2022-10-18T04:21:00.513Z,13.95
2022-10-18T04:23:27.406Z,11.32
2022-10-18T04:25:54.332Z,19.20
2022-10-18T04:28:21.259Z,21.27
2022-10-18T04:30:52.513Z,15.43
2022-10-18T04:33:20.048Z,14.82
2022-10-18T04:35:47.422Z,13.45
2022-10-18T04:38:14.896Z,14.85
2022-10-18T04:40:41.847Z,13.82
2022-10-18T04:43:08.816Z,18.17
2022-10-18T04:45:35.809Z,13.52
2022-10-18T04:48:03.179Z,16.48
2022-10-18T04:50:30.075Z,18.30
2022-10-18T04:52:57.322Z,19.73
2022-10-18T04:55:24.336Z,16.77
2022-10-18T04:57:51.154Z,15.60
2022-10-18T05:00:18.092Z,15.35
2022-10-18T05:02:45.451Z,15.77
2022-10-18T05:05:14.074Z,13.10
2022-10-18T05:07:41.275Z,14.63
2022-10-18T05:10:08.646Z,14.07
2022-10-18T05:12:35.701Z,10.93
2022-10-18T05:15:02.636Z,13.93
2022-10-18T05:17:30.746Z,16.48
2022-10-18T05:19:57.692Z,15.05
2022-10-18T05:22:24.596Z,15.70
2022-10-18T05:24:51.473Z,13.10
2022-10-18T05:27:18.372Z,13.35
2022-10-18T05:29:45.386Z,17.45
2022-10-18T05:32:12.399Z,13.77
2022-10-18T05:34:39.442Z,17.58
2022-10-18T05:37:07.202Z,13.50
2022-10-18T05:39:34.277Z,16.30
2022-10-18T05:42:01.220Z,20.77
2022-10-18T05:44:28.141Z,17.13
2022-10-18T05:46:55.156Z,17.77
2022-10-18T05:49:22.037Z,14.98
2022-10-18T05:51:49.014Z,15.50
2022-10-18T05:54:16.066Z,16.50
2022-10-18T05:56:43.004Z,16.50
2022-10-18T05:59:12.384Z,16.42
2022-10-18T06:01:41.214Z,17.67
2022-10-18T06:04:10.173Z,17.83
2022-10-18T06:06:38.989Z,17.70
2022-10-18T06:09:07.442Z,16.63
2022-10-18T06:11:36.131Z,18.17
2022-10-18T06:14:03.297Z,19.77
2022-10-18T06:16:32.608Z,20.85
2022-10-18T06:19:00.208Z,24.73
2022-10-18T06:21:27.843Z,18.80
2022-10-18T06:23:58.028Z,24.13
2022-10-18T06:26:25.698Z,17.17
2022-10-18T06:28:52.690Z,20.80
2022-10-18T06:31:21.384Z,20.67
2022-10-18T06:33:48.529Z,18.60
2022-10-18T06:36:18.545Z,22.60
2022-10-18T06:38:45.706Z,20.52
2022-10-18T06:41:12.803Z,23.67
2022-10-18T06:43:39.911Z,23.13
2022-10-18T06:46:08.456Z,22.42
2022-10-18T06:48:36.758Z,33.08
2022-10-18T06:51:06.143Z,23.73
2022-10-18T06:53:43.855Z,27.88
2022-10-18T06:56:15.996Z,21.67
2022-10-18T06:58:43.057Z,25.83
2022-10-18T07:01:13.335Z,30.45
2022-10-18T07:03:40.315Z,25.33
2022-10-18T07:06:09.609Z,24.88
2022-10-18T07:08:37.384Z,24.38
2022-10-18T07:11:05.187Z,24.98
2022-10-18T07:13:33.656Z,24.40
2022-10-18T07:16:03.055Z,25.02
2022-10-18T07:18:29.956Z,23.80
2022-10-18T07:20:56.815Z,22.85
2022-10-18T07:23:24.116Z,25.70
2022-10-18T07:25:51.273Z,22.23
2022-10-18T07:28:18.463Z,28.48
2022-10-18T07:30:45.824Z,26.35
2022-10-18T07:33:12.782Z,21.33
2022-10-18T07:35:39.635Z,21.25
2022-10-18T07:38:06.559Z,22.30
2022-10-18T07:40:33.481Z,18.05
2022-10-18T07:43:04.544Z,24.83
2022-10-18T07:45:32.396Z,17.33
2022-10-18T07:47:59.400Z,20.98
2022-10-18T07:50:26.335Z,24.35
2022-10-18T07:52:53.250Z,19.63
2022-10-18T07:55:20.183Z,24.70
2022-10-18T07:57:47.037Z,22.27
2022-10-18T08:00:14.270Z,17.73
2022-10-18T08:02:42.052Z,28.85
2022-10-18T08:05:09.498Z,19.15
2022-10-18T08:07:36.317Z,23.35
2022-10-18T08:10:04.050Z,22.25
2022-10-18T08:12:30.981Z,22.20
2022-10-18T08:14:57.931Z,23.38
2022-10-18T08:17:24.839Z,21.45
2022-10-18T08:20:04.770Z,20.73
2022-10-18T08:22:38.761Z,18.77
2022-10-18T08:25:06.221Z,30.48
2022-10-18T08:27:33.258Z,19.38
2022-10-18T08:30:02.094Z,24.85
2022-10-18T08:32:31.154Z,26.65
2022-10-18T08:34:58.309Z,36.55
2022-10-18T08:37:25.148Z,23.73
2022-10-18T08:39:52.028Z,32.38
2022-10-18T08:42:49.480Z,23.42
2022-10-18T08:45:30.219Z,24.75
2022-10-18T08:50:36.868Z,18.90
2022-10-18T08:53:14.461Z,18.60
2022-10-18T08:55:48.560Z,18.10
2022-10-18T08:58:20.426Z,20.33
2022-10-18T09:01:20.963Z,16.50
2022-10-18T09:04:09.910Z,16.05
2022-10-18T09:06:55.322Z,19.33
2022-10-18T09:09:25.242Z,15.30
2022-10-18T09:11:58.096Z,20.15
2022-10-18T09:14:55.686Z,19.95
2022-10-18T09:17:34.206Z,18.52
2022-10-18T09:20:27.651Z,19.00
2022-10-18T09:23:15.816Z,17.50
2022-10-18T09:25:49.203Z,20.83
2022-10-18T09:28:28.132Z,21.08
2022-10-18T09:31:06.005Z,15.52
2022-10-18T09:33:35.781Z,18.60
2022-10-18T09:36:06.293Z,15.30
2022-10-18T09:38:41.880Z,16.30
2022-10-18T09:41:34.333Z,16.17
2022-10-18T09:44:06.959Z,16.23
2022-10-18T09:46:39.398Z,17.33
2022-10-18T09:49:16.636Z,17.13
2022-10-18T09:51:45.219Z,13.93
2022-10-18T09:54:26.546Z,16.67
2022-10-18T09:57:11.402Z,15.23
2022-10-18T09:59:47.556Z,15.90
2022-10-18T10:02:23.821Z,13.38
2022-10-18T10:04:52.295Z,11.88
2022-10-18T10:07:29.929Z,16.92
2022-10-18T10:10:26.325Z,16.90
2022-10-18T10:13:22.992Z,16.02
2022-10-18T10:16:03.604Z,18.65
2022-10-18T10:18:33.716Z,20.25
2022-10-18T10:21:05.863Z,19.13
2022-10-18T10:23:51.031Z,19.55
2022-10-18T10:26:25.346Z,21.35
2022-10-18T10:28:52.536Z,14.82
2022-10-18T10:31:25.571Z,17.83
2022-10-18T10:34:01.101Z,23.10
2022-10-18T10:36:29.516Z,19.45
2022-10-18T10:39:23.915Z,18.27
2022-10-18T10:41:53.358Z,14.43
2022-10-18T10:44:23.437Z,19.10
2022-10-18T10:46:52.164Z,17.85
2022-10-18T10:49:39.555Z,19.05
2022-10-18T10:52:26.917Z,18.52
2022-10-18T10:55:30.789Z,20.20
2022-10-18T10:57:50.372Z,21.13
2022-10-18T11:00:37.631Z,17.77
2022-10-18T11:03:28.093Z,17.67
2022-10-18T11:05:57.987Z,19.27
2022-10-18T11:08:28.375Z,20.50
2022-10-18T11:11:04.872Z,18.27
2022-10-18T11:13:50.002Z,18.42
2022-10-18T11:16:46.675Z,15.23
2022-10-18T11:19:32.708Z,15.98
2022-10-18T11:22:04.238Z,15.85
2022-10-18T11:24:31.605Z,15.80
2022-10-18T11:27:32.114Z,15.77
2022-10-18T11:30:43.305Z,17.92
2022-10-18T11:33:16.014Z,17.10
2022-10-18T11:36:05.096Z,15.90
2022-10-18T11:38:57.523Z,15.23
2022-10-18T11:41:31.562Z,16.42
2022-10-18T11:44:03.310Z,16.52
2022-10-18T11:46:54.333Z,16.95
2022-10-18T11:49:33.174Z,17.67
2022-10-18T11:52:15.058Z,16.92
2022-10-18T11:55:11.611Z,15.23
2022-10-18T12:00:52.303Z,18.77
2022-10-18T12:03:38.799Z,15.70
2022-10-18T12:06:15.000Z,15.20
2022-10-18T12:09:04.144Z,14.35
2022-10-18T12:11:38.706Z,16.92
2022-10-18T12:14:22.746Z,15.10
2022-10-18T12:16:53.651Z,16.00
2022-10-18T12:19:33.135Z,15.30
2022-10-18T12:22:23.231Z,18.63
2022-10-18T12:24:50.350Z,17.17
2022-10-18T12:27:18.689Z,16.65
2022-10-18T12:29:52.998Z,23.25
2022-10-18T12:32:27.182Z,14.93
2022-10-18T12:35:11.956Z,13.55
2022-10-18T12:38:02.981Z,15.43
2022-10-18T12:40:41.396Z,17.98
2022-10-18T12:43:10.919Z,17.15
2022-10-18T12:45:58.196Z,15.95
2022-10-18T12:48:30.144Z,16.20
2022-10-18T12:51:05.168Z,14.02
2022-10-18T12:53:33.027Z,16.38
2022-10-18T12:56:27.999Z,14.20
2022-10-18T12:59:26.381Z,13.55
2022-10-18T13:01:53.499Z,14.63
2022-10-18T13:04:32.497Z,17.83
2022-10-18T13:07:05.356Z,14.57
2022-10-18T13:09:36.419Z,16.63
2022-10-18T13:12:15.006Z,14.45
2022-10-18T13:15:13.434Z,16.20
2022-10-18T13:17:53.539Z,13.77
2022-10-18T13:20:45.784Z,16.88
2022-10-18T13:23:27.775Z,15.88
2022-10-18T13:26:03.180Z,12.73
2022-10-18T13:28:48.410Z,12.00
2022-10-18T13:31:27.584Z,13.50
2022-10-18T13:33:54.883Z,12.18
2022-10-18T13:36:26.783Z,7.97
2022-10-18T13:38:53.653Z,10.27
2022-10-18T13:44:30.517Z,8.27
2022-10-18T13:49:39.290Z,5.00
2022-10-18T13:52:43.830Z,6.32
2022-10-18T13:55:55.006Z,5.50
2022-10-18T13:59:05.708Z,6.25
2022-10-18T14:02:30.730Z,4.95
2022-10-18T14:05:29.575Z,5.68
2022-10-18T14:08:11.425Z,6.85
2022-10-18T14:11:16.018Z,5.55
2022-10-18T14:13:48.073Z,4.38
2022-10-18T14:16:28.065Z,3.72
2022-10-18T14:19:02.599Z,5.72
2022-10-18T14:21:36.305Z,4.63
2022-10-18T14:24:09.237Z,4.15
2022-10-18T14:26:36.305Z,2.97
2022-10-18T14:29:06.351Z,2.72
2022-10-18T14:31:34.792Z,5.63
2022-10-18T14:34:03.160Z,4.32
2022-10-18T14:36:41.190Z,2.83
2022-10-18T14:39:20.029Z,4.85
2022-10-18T14:41:55.064Z,4.60
2022-10-18T14:44:27.243Z,3.22
2022-10-18T14:47:03.212Z,2.53
2022-10-18T14:49:30.888Z,4.28
2022-10-18T14:52:00.507Z,4.65
2022-10-18T14:54:33.113Z,2.25
2022-10-18T14:57:02.082Z,2.22
2022-10-18T14:59:32.699Z,5.72
2022-10-18T15:02:05.160Z,2.08
2022-10-18T15:04:35.245Z,3.15
2022-10-18T15:07:07.823Z,4.18
2022-10-18T15:09:37.048Z,2.38
2022-10-18T15:12:06.194Z,2.13
2022-10-18T15:14:34.957Z,3.58
2022-10-18T15:17:14.295Z,1.50
2022-10-18T15:19:54.713Z,1.77
2022-10-18T15:22:32.061Z,3.17
2022-10-18T15:25:05.778Z,2.17
2022-10-18T15:27:36.586Z,3.88
2022-10-18T15:30:17.822Z,2.35
2022-10-18T15:33:05.683Z,11.32
2022-10-18T15:35:34.802Z,1.98
2022-10-18T15:38:33.096Z,1.67
2022-10-18T15:41:00.008Z,2.13
2022-10-18T15:43:26.770Z,1.85
2022-10-18T15:45:57.709Z,1.50
2022-10-18T15:48:47.189Z,2.00
2022-10-18T15:54:00.873Z,1.95
2022-10-18T15:56:38.630Z,5.43
2022-10-18T15:59:21.060Z,1.50
2022-10-18T16:01:48.258Z,1.15
2022-10-18T16:04:23.687Z,1.60
2022-10-18T16:06:51.014Z,5.38
2022-10-18T16:09:19.707Z,2.20
2022-10-18T16:11:52.936Z,1.42
2022-10-18T16:14:23.411Z,2.22
2022-10-18T16:16:54.655Z,1.30
2022-10-18T16:19:22.905Z,1.40
2022-10-18T16:21:51.810Z,1.80
2022-10-18T16:24:19.231Z,1.35
2022-10-18T16:26:46.834Z,3.22
2022-10-18T16:29:15.475Z,1.25
2022-10-18T16:31:43.005Z,1.30
2022-10-18T16:34:11.360Z,2.33
2022-10-18T16:36:38.235Z,1.30
2022-10-18T16:39:07.929Z,2.33
2022-10-18T16:41:34.886Z,1.40
2022-10-18T16:44:01.743Z,1.40
2022-10-18T16:46:31.634Z,2.45
2022-10-18T16:48:58.865Z,1.40
2022-10-18T16:51:26.390Z,2.08
2022-10-18T16:53:53.844Z,2.17
2022-10-18T16:56:32.325Z,1.67
2022-10-18T16:58:59.942Z,1.45
2022-10-18T17:01:26.955Z,2.92
2022-10-18T17:03:54.047Z,0.80
2022-10-18T17:06:27.041Z,1.08
2022-10-18T17:08:55.427Z,0.82
2022-10-18T17:11:24.700Z,0.80
2022-10-18T17:13:51.714Z,2.25
2022-10-18T17:18:57.843Z,3.15
2022-10-18T17:21:26.225Z,0.80
2022-10-18T17:23:53.866Z,1.00
2022-10-18T17:26:30.668Z,1.25
2022-10-18T17:29:01.481Z,1.00
2022-10-18T17:31:29.805Z,1.90
2022-10-18T17:33:58.460Z,0.82
2022-10-18T17:36:26.244Z,3.22
2022-10-18T17:38:54.563Z,0.77
2022-10-18T17:41:21.956Z,1.10
2022-10-18T17:43:48.851Z,1.23
2022-10-18T17:46:17.866Z,0.90
2022-10-18T17:48:45.429Z,1.55
2022-10-18T17:51:15.245Z,2.13
2022-10-18T17:53:42.386Z,0.80
2022-10-18T17:56:11.754Z,4.03
2022-10-18T17:58:39.113Z,0.95
2022-10-18T18:01:12.029Z,0.80
2022-10-18T18:03:39.309Z,0.88
2022-10-18T18:06:20.580Z,1.30
2022-10-18T18:08:49.027Z,0.70
2022-10-18T18:11:17.432Z,0.90
2022-10-18T18:13:44.464Z,0.88
2022-10-18T18:16:19.743Z,0.75
2022-10-18T18:18:48.639Z,0.90
2022-10-18T18:21:15.876Z,2.13
2022-10-18T18:23:43.154Z,3.15
2022-10-18T18:26:10.084Z,1.33
2022-10-18T18:28:37.471Z,0.80
2022-10-18T18:31:09.850Z,2.70
2022-10-18T18:33:37.128Z,1.17
2022-10-18T18:36:05.268Z,1.50
2022-10-18T18:38:33.512Z,1.10
2022-10-18T18:41:04.606Z,3.92
2022-10-18T18:43:31.664Z,3.88
2022-10-18T18:45:58.826Z,3.55
2022-10-18T18:48:29.264Z,1.80
2022-10-18T18:50:56.208Z,1.02
2022-10-18T18:53:27.140Z,1.98
2022-10-18T18:56:05.421Z,1.33
2022-10-18T18:58:34.046Z,3.28
2022-10-18T19:01:07.002Z,0.90
2022-10-18T19:03:33.950Z,1.27
2022-10-18T19:06:05.784Z,1.10
2022-10-18T19:08:35.435Z,1.10
2022-10-18T19:11:03.658Z,1.17
2022-10-18T19:13:32.816Z,2.05
2022-10-18T19:16:22.920Z,0.90
2022-10-18T19:19:02.075Z,2.22
2022-10-18T19:21:31.388Z,1.05
2022-10-18T19:23:59.143Z,1.00
2022-10-18T19:26:45.983Z,1.13
2022-10-18T19:29:19.229Z,1.20
2022-10-18T19:31:46.215Z,2.88
2022-10-18T19:34:14.778Z,0.93
2022-10-18T19:36:43.381Z,0.95
2022-10-18T19:39:18.417Z,1.77
2022-10-18T19:41:50.738Z,0.80
2022-10-18T19:44:22.346Z,1.30
2022-10-18T19:46:49.824Z,3.15
2022-10-18T19:49:16.993Z,0.90
2022-10-18T19:51:44.144Z,1.02
2022-10-18T19:54:15.509Z,1.02
2022-10-18T19:56:43.213Z,1.27
2022-10-18T19:59:11.671Z,1.02
2022-10-18T20:01:39.017Z,1.10
2022-10-18T20:04:08.368Z,1.40
2022-10-18T20:06:36.316Z,1.10
2022-10-18T20:09:04.659Z,1.08
2022-10-18T20:11:32.720Z,0.80
2022-10-18T20:13:59.923Z,2.10
2022-10-18T20:16:29.164Z,0.70
2022-10-18T20:19:01.537Z,1.23
2022-10-18T20:21:30.297Z,1.15
2022-10-18T20:23:57.252Z,1.25
2022-10-18T20:26:25.637Z,1.10
2022-10-18T20:28:58.230Z,2.08
2022-10-18T20:31:30.829Z,1.63
2022-10-18T20:34:03.612Z,0.80
2022-10-18T20:36:32.144Z,3.83
2022-10-18T20:38:59.531Z,1.02
2022-10-18T20:41:29.372Z,4.53
2022-10-18T20:43:57.536Z,1.02
2022-10-18T20:46:25.743Z,5.07
2022-10-18T20:48:54.033Z,1.02
2022-10-18T20:51:21.763Z,1.27
2022-10-18T20:53:49.284Z,2.50
2022-10-18T20:56:20.499Z,0.93
2022-10-18T20:58:49.572Z,2.25
2022-10-18T21:01:22.386Z,2.97
2022-10-18T21:03:51.243Z,2.92
2022-10-18T21:06:27.150Z,1.73
2022-10-18T21:08:56.036Z,1.38
2022-10-18T21:11:25.465Z,1.65
2022-10-18T21:14:03.002Z,1.30
2022-10-18T21:16:31.230Z,1.85
2022-10-18T21:19:06.054Z,2.90
2022-10-18T21:21:33.623Z,1.95
2022-10-18T21:24:03.827Z,1.20
2022-10-18T21:26:34.437Z,1.30
2022-10-18T21:29:02.038Z,2.67
2022-10-18T21:31:39.243Z,1.25
2022-10-18T21:34:12.945Z,1.48
2022-10-18T21:36:40.886Z,1.02
2022-10-18T21:39:12.882Z,2.72
2022-10-18T21:41:39.884Z,1.13
2022-10-18T21:44:09.931Z,1.52
2022-10-18T21:46:39.491Z,1.95
2022-10-18T21:49:07.572Z,1.70
2022-10-18T21:51:34.768Z,1.48
2022-10-18T21:54:01.896Z,2.00
2022-10-18T21:56:31.931Z,2.17
2022-10-18T21:59:00.407Z,1.50
2022-10-18T22:01:36.324Z,3.95
2022-10-18T22:04:05.973Z,1.85
2022-10-18T22:09:07.308Z,2.45
2022-10-18T22:11:46.783Z,1.65
2022-10-18T22:14:13.793Z,1.83
2022-10-18T22:16:40.741Z,1.50
2022-10-18T22:19:07.746Z,1.20
2022-10-18T22:21:35.302Z,2.13
2022-10-18T22:24:06.367Z,0.90
2022-10-18T22:26:36.750Z,2.22
2022-10-18T22:29:12.467Z,2.28
2022-10-18T22:31:42.501Z,1.23
2022-10-18T22:34:14.002Z,1.00
2022-10-18T22:36:41.263Z,0.95
2022-10-18T22:39:09.028Z,4.30
2022-10-18T22:41:36.596Z,1.20
2022-10-18T22:44:04.294Z,1.08
2022-10-18T22:46:32.960Z,1.38
2022-10-18T22:49:00.165Z,1.10
2022-10-18T22:51:27.115Z,0.90
2022-10-18T22:53:55.906Z,0.90
2022-10-18T22:56:23.511Z,0.82
2022-10-18T22:58:51.828Z,1.42
2022-10-18T23:01:22.024Z,1.20
2022-10-18T23:03:56.890Z,0.80
2022-10-18T23:06:29.658Z,1.05
2022-10-18T23:08:58.347Z,1.40
2022-10-18T23:11:26.979Z,1.33
2022-10-18T23:13:55.099Z,0.73
2022-10-18T23:16:22.712Z,2.67
2022-10-18T23:18:57.241Z,0.80
2022-10-18T23:21:26.736Z,1.02
2022-10-18T23:23:55.165Z,1.20
2022-10-18T23:26:27.514Z,0.93
2022-10-18T23:28:55.292Z,0.85
2022-10-18T23:31:28.233Z,1.00
2022-10-18T23:33:57.237Z,0.80
2022-10-18T23:36:25.269Z,0.80
2022-10-18T23:38:52.361Z,0.88
2022-10-18T23:41:25.211Z,1.58
2022-10-18T23:43:52.823Z,1.02
2022-10-18T23:46:20.244Z,3.20
2022-10-18T23:48:47.944Z,0.95
2022-10-18T23:51:15.990Z,1.00
2022-10-18T23:53:43.342Z,0.82
2022-10-18T23:56:13.147Z,1.50
2022-10-18T23:58:41.792Z,0.90
